Time;durP1;ratioP1;P1;durP2;ratioP2;P2;SDS_P1;SDS_P2;PMS_P1;PMS_P2;Temp;Humidity;BMP_temperature;BMP_pressure;BME280_temperature;BME280_humidity;BME280_pressure;Samples;Min_cycle;Max_cycle;Signal;HPM_P1;HPM_P2
2022/06/15 00:00:59;;;;;;;8.32;2.92;;;11.80;99.90;;;;;;5025448;28;20021;-69
2022/06/15 00:03:30;;;;;;;8.20;2.42;;;11.90;99.90;;;;;;5012515;28;20026;-68
2022/06/15 00:06:15;;;;;;;11.30;3.05;;;12.00;99.90;;;;;;5012260;28;20018;-68
2022/06/15 00:08:44;;;;;;;7.47;2.33;;;12.30;99.90;;;;;;5011531;28;20117;-68
2022/06/15 00:11:28;;;;;;;8.32;2.50;;;12.50;99.90;;;;;;5017632;28;20124;-68
2022/06/15 00:13:58;;;;;;;6.05;2.42;;;12.60;99.90;;;;;;5013259;28;20025;-68
2022/06/15 00:16:26;;;;;;;5.43;2.45;;;12.60;99.90;;;;;;5011084;28;20511;-69
2022/06/15 00:18:53;;;;;;;5.28;1.80;;;12.50;99.90;;;;;;5018511;28;20119;-68
2022/06/15 00:21:21;;;;;;;3.63;1.75;;;12.40;99.90;;;;;;5015297;28;20030;-68
2022/06/15 00:23:50;;;;;;;3.67;1.35;;;12.60;99.90;;;;;;5011415;28;20030;-68
2022/06/15 00:26:17;;;;;;;2.83;1.55;;;12.50;99.90;;;;;;5015628;28;20026;-68
2022/06/15 00:28:44;;;;;;;3.13;1.15;;;12.60;99.90;;;;;;5012289;28;20416;-68
2022/06/15 00:31:12;;;;;;;3.88;1.35;;;12.80;99.90;;;;;;5013958;28;20562;-68
2022/06/15 00:33:39;;;;;;;3.70;1.52;;;12.90;99.90;;;;;;5020115;28;20020;-68
2022/06/15 00:36:19;;;;;;;2.85;1.60;;;12.90;99.90;;;;;;5024006;28;20044;-68
2022/06/15 00:38:55;;;;;;;3.95;1.65;;;12.90;99.90;;;;;;5034888;28;20097;-68
2022/06/15 00:41:36;;;;;;;4.75;1.83;;;12.90;99.90;;;;;;5017448;28;20025;-68
2022/06/15 00:44:22;;;;;;;10.00;2.10;;;12.70;99.90;;;;;;5022855;28;20381;-68
2022/06/15 00:47:12;;;;;;;2.92;1.40;;;12.80;99.90;;;;;;5019040;28;20474;-67
2022/06/15 00:50:00;;;;;;;3.63;1.33;;;12.90;99.90;;;;;;5028987;28;20112;-68
2022/06/15 00:52:57;;;;;;;5.82;2.00;;;13.00;99.90;;;;;;5017067;28;20032;-68
2022/06/15 00:55:30;;;;;;;5.03;1.67;;;13.00;99.90;;;;;;5014908;28;20042;-68
2022/06/15 00:58:01;;;;;;;10.00;1.50;;;13.20;99.90;;;;;;5029138;28;20035;-68
2022/06/15 01:00:30;;;;;;;3.75;1.00;;;13.30;99.90;;;;;;5026521;28;20095;-68
2022/06/15 01:02:57;;;;;;;3.13;1.25;;;13.30;99.90;;;;;;5024948;28;20026;-67
2022/06/15 01:05:28;;;;;;;3.67;1.35;;;13.20;99.90;;;;;;5022356;28;20034;-67
2022/06/15 01:08:21;;;;;;;6.25;1.30;;;13.30;99.90;;;;;;5023064;28;20394;-67
2022/06/15 01:11:21;;;;;;;2.25;1.20;;;13.40;99.90;;;;;;5019825;28;20033;-67
2022/06/15 01:14:22;;;;;;;1.55;1.05;;;13.50;99.90;;;;;;5017028;28;20460;-68
2022/06/15 01:17:05;;;;;;;2.60;1.20;;;13.30;99.90;;;;;;5021359;28;20033;-67
2022/06/15 01:19:48;;;;;;;2.57;1.00;;;13.50;99.90;;;;;;5022134;28;20034;-68
2022/06/15 01:22:50;;;;;;;1.98;0.75;;;13.60;99.90;;;;;;5016227;28;20421;-67
2022/06/15 01:25:49;;;;;;;1.20;0.60;;;13.80;99.90;;;;;;5021615;28;20052;-67
2022/06/15 01:28:22;;;;;;;3.00;0.85;;;13.80;99.90;;;;;;5016208;28;20041;-68
2022/06/15 01:30:56;;;;;;;2.47;0.60;;;13.80;99.90;;;;;;5032934;28;20026;-68
2022/06/15 01:33:50;;;;;;;3.37;0.60;;;14.00;99.90;;;;;;5021045;28;20944;-68
2022/06/15 01:36:38;;;;;;;4.20;0.60;;;14.30;99.90;;;;;;5034758;28;20625;-68
2022/06/15 01:39:51;;;;;;;4.13;0.63;;;14.30;99.90;;;;;;5028378;28;20030;-67
2022/06/15 01:42:33;;;;;;;3.80;0.70;;;14.50;99.90;;;;;;5019921;28;20074;-66
2022/06/15 01:45:09;;;;;;;2.03;0.70;;;14.40;99.90;;;;;;5025382;28;20033;-66
2022/06/15 01:47:38;;;;;;;3.65;0.63;;;14.50;99.90;;;;;;5021316;28;20444;-66
2022/06/15 01:50:14;;;;;;;2.15;0.73;;;14.70;99.90;;;;;;5024882;28;20472;-66
2022/06/15 01:52:51;;;;;;;2.22;0.60;;;14.60;99.90;;;;;;5027318;28;20464;-66
2022/06/15 01:55:25;;;;;;;2.00;0.60;;;14.80;99.90;;;;;;5024254;28;20064;-67
2022/06/15 01:57:56;;;;;;;1.35;0.60;;;14.90;99.90;;;;;;5020443;28;20029;-67
2022/06/15 02:00:23;;;;;;;2.83;0.45;;;15.00;99.90;;;;;;5022305;28;20030;-67
2022/06/15 02:03:13;;;;;;;0.50;0.22;;;15.20;99.90;;;;;;5026332;28;20528;-67
2022/06/15 02:06:01;;;;;;;0.95;0.40;;;15.30;99.90;;;;;;5014671;28;20030;-68
2022/06/15 02:08:59;;;;;;;3.10;0.50;;;15.60;99.90;;;;;;5014334;28;20528;-67
2022/06/15 02:11:34;;;;;;;1.40;0.40;;;15.70;99.90;;;;;;5025530;28;22691;-67
2022/06/15 02:14:32;;;;;;;1.55;0.38;;;16.00;99.90;;;;;;5022203;28;20033;-67
2022/06/15 02:17:11;;;;;;;1.95;0.43;;;16.10;99.90;;;;;;5017326;28;20046;-67
2022/06/15 02:19:46;;;;;;;1.77;0.50;;;16.30;99.90;;;;;;5015839;28;20030;-68
2022/06/15 02:22:24;;;;;;;1.45;0.38;;;16.70;99.90;;;;;;5030159;28;20095;-67
2022/06/15 02:24:56;;;;;;;1.15;0.43;;;17.00;99.60;;;;;;5029226;28;20025;-67
2022/06/15 02:27:26;;;;;;;2.28;0.65;;;17.30;98.90;;;;;;5046430;28;20025;-68
2022/06/15 02:29:57;;;;;;;3.22;0.45;;;17.60;99.20;;;;;;5034304;28;20026;-67
2022/06/15 02:32:25;;;;;;;1.27;0.50;;;17.80;98.20;;;;;;5024001;28;20486;-67
2022/06/15 02:34:53;;;;;;;2.20;0.60;;;17.40;98.80;;;;;;5031307;28;20301;-68
2022/06/15 02:37:20;;;;;;;1.23;0.65;;;17.60;98.90;;;;;;5026247;28;20028;-68
2022/06/15 02:39:47;;;;;;;2.15;0.52;;;17.10;98.60;;;;;;5028649;28;20033;-67
2022/06/15 02:42:28;;;;;;;1.10;0.30;;;17.10;98.80;;;;;;5020964;28;20478;-68
2022/06/15 02:45:05;;;;;;;1.77;0.50;;;17.40;98.20;;;;;;5015837;28;20057;-67
2022/06/15 02:47:38;;;;;;;0.85;0.40;;;17.70;98.50;;;;;;5041380;28;20053;-68
2022/06/15 02:50:06;;;;;;;1.10;0.57;;;18.00;97.70;;;;;;5034260;28;20038;-68
2022/06/15 02:52:43;;;;;;;0.95;0.40;;;17.60;97.40;;;;;;5027466;28;20073;-67
2022/06/15 02:55:12;;;;;;;2.55;0.40;;;17.80;97.50;;;;;;5029017;28;20046;-67
2022/06/15 02:58:03;;;;;;;3.05;0.65;;;17.70;97.80;;;;;;5027954;28;20497;-67
2022/06/15 03:00:31;;;;;;;2.55;0.63;;;17.80;97.80;;;;;;5015277;28;20037;-67
2022/06/15 03:02:58;;;;;;;3.33;0.35;;;18.00;97.80;;;;;;5031171;28;20029;-68
2022/06/15 03:05:25;;;;;;;2.45;0.50;;;17.80;96.90;;;;;;5026284;28;20033;-68
2022/06/15 03:07:53;;;;;;;1.85;0.50;;;17.90;96.80;;;;;;5030028;28;20064;-67
2022/06/15 03:10:20;;;;;;;5.32;0.40;;;17.80;96.90;;;;;;5026922;28;20414;-67
2022/06/15 03:12:48;;;;;;;1.20;0.38;;;18.40;97.30;;;;;;5039183;28;20033;-67
2022/06/15 03:15:15;;;;;;;4.60;0.50;;;18.60;96.40;;;;;;5016609;28;20041;-68
2022/06/15 03:17:43;;;;;;;1.98;0.30;;;18.20;96.30;;;;;;5013471;28;20037;-68
2022/06/15 03:20:11;;;;;;;0.90;0.35;;;17.90;97.00;;;;;;5012386;28;20463;-68
2022/06/15 03:22:39;;;;;;;1.48;0.20;;;18.20;96.60;;;;;;5017573;28;20490;-68
2022/06/15 03:25:06;;;;;;;13.88;3.17;;;19.10;96.20;;;;;;5012806;28;20449;-68
2022/06/15 03:27:34;;;;;;;2.88;0.50;;;18.90;96.70;;;;;;5023610;28;20026;-68
2022/06/15 03:30:04;;;;;;;0.70;0.25;;;19.40;95.50;;;;;;5012773;28;20113;-68
2022/06/15 03:32:31;;;;;;;1.05;0.30;;;19.10;95.30;;;;;;5013585;28;20505;-67
2022/06/15 03:34:58;;;;;;;2.45;0.30;;;18.50;95.40;;;;;;5012706;28;20029;-68
2022/06/15 03:37:26;;;;;;;0.77;0.15;;;18.50;95.80;;;;;;5019423;28;20052;-67
2022/06/15 03:39:54;;;;;;;1.75;0.30;;;18.80;96.00;;;;;;5015628;28;20425;-67
2022/06/15 03:42:24;;;;;;;1.42;0.32;;;19.10;95.70;;;;;;5012910;28;20166;-67
2022/06/15 03:44:53;;;;;;;2.35;0.30;;;19.40;94.90;;;;;;5021122;28;20029;-67
2022/06/15 03:47:21;;;;;;;1.02;0.50;;;18.80;95.40;;;;;;5033004;28;20120;-67
2022/06/15 03:49:51;;;;;;;0.40;0.20;;;19.10;94.50;;;;;;5025306;28;20408;-67
2022/06/15 03:52:23;;;;;;;1.88;0.40;;;18.60;94.80;;;;;;5022951;28;20025;-67
2022/06/15 03:54:50;;;;;;;0.77;0.22;;;18.40;94.80;;;;;;5017586;28;20117;-67
2022/06/15 03:57:20;;;;;;;0.22;0.20;;;18.50;94.40;;;;;;5016154;28;20036;-67
2022/06/15 03:59:48;;;;;;;3.30;0.50;;;18.60;94.10;;;;;;5019481;28;20114;-67
2022/06/15 04:02:15;;;;;;;1.90;0.22;;;18.80;94.90;;;;;;5024427;28;20034;-67
2022/06/15 04:04:42;;;;;;;6.53;0.50;;;18.40;94.30;;;;;;5016180;28;20025;-67
2022/06/15 04:09:56;;;;;;;2.15;0.60;;;18.90;95.50;;;;;;5018579;28;20037;-66
2022/06/15 04:12:24;;;;;;;0.85;0.30;;;18.70;94.90;;;;;;5022957;28;20104;-66
2022/06/15 04:14:51;;;;;;;0.90;0.20;;;18.50;95.30;;;;;;5022736;28;20026;-66
2022/06/15 04:17:19;;;;;;;0.77;0.30;;;18.20;94.80;;;;;;5025875;28;20504;-66
2022/06/15 04:20:31;;;;;;;1.00;0.10;;;18.20;95.10;;;;;;5025640;28;20021;-66
2022/06/15 04:22:36;;;;;;;1.05;0.30;;;18.00;94.80;;;;;;5012616;28;20069;-67
2022/06/15 04:25:03;;;;;;;1.98;0.30;;;17.90;94.50;;;;;;5012339;28;20541;-67
2022/06/15 04:27:32;;;;;;;1.45;0.30;;;17.90;96.20;;;;;;5016958;28;20470;-67
2022/06/15 04:30:00;;;;;;;2.58;0.40;;;17.90;96.10;;;;;;5039188;28;20060;-67
2022/06/15 04:32:27;;;;;;;5.45;0.30;;;17.80;96.50;;;;;;5030807;28;20095;-67
2022/06/15 04:34:55;;;;;;;1.67;0.28;;;17.70;97.00;;;;;;5029261;28;20029;-67
2022/06/15 04:37:23;;;;;;;0.57;0.30;;;17.80;95.40;;;;;;5016297;28;20544;-67
2022/06/15 04:39:50;;;;;;;2.80;0.28;;;18.00;95.00;;;;;;5020388;28;20033;-67
2022/06/15 04:42:17;;;;;;;2.03;0.40;;;18.10;95.70;;;;;;5016704;28;20052;-67
2022/06/15 04:44:45;;;;;;;0.63;0.25;;;18.00;95.90;;;;;;5027816;28;20137;-67
2022/06/15 04:47:12;;;;;;;1.00;0.20;;;17.90;95.30;;;;;;5022649;28;20037;-67
2022/06/15 04:49:40;;;;;;;2.42;0.40;;;18.00;94.80;;;;;;5012678;28;20022;-67
2022/06/15 04:52:07;;;;;;;2.17;0.38;;;18.00;94.80;;;;;;5014962;28;20505;-67
2022/06/15 04:54:34;;;;;;;4.82;0.30;;;17.90;95.00;;;;;;5018278;28;20056;-67
2022/06/15 04:57:02;;;;;;;2.38;0.30;;;17.90;95.60;;;;;;5012140;28;20393;-67
2022/06/15 04:59:29;;;;;;;0.93;0.30;;;17.90;95.20;;;;;;5015622;28;20034;-67
2022/06/15 05:01:58;;;;;;;1.30;0.47;;;18.00;95.60;;;;;;5019945;28;20021;-67
2022/06/15 05:04:28;;;;;;;2.72;0.30;;;17.80;95.90;;;;;;5032401;28;20025;-67
2022/06/15 05:06:55;;;;;;;0.95;0.30;;;17.70;96.10;;;;;;5013006;28;20033;-67
2022/06/15 05:09:22;;;;;;;2.25;0.35;;;17.60;96.90;;;;;;5025641;28;20091;-67
2022/06/15 05:11:50;;;;;;;0.45;0.10;;;17.50;96.40;;;;;;5020395;28;20022;-67
2022/06/15 05:14:17;;;;;;;1.75;0.30;;;17.50;97.10;;;;;;5015488;28;20025;-67
2022/06/15 05:16:45;;;;;;;0.90;0.30;;;17.30;97.50;;;;;;5018968;28;20026;-67
2022/06/15 05:19:13;;;;;;;2.22;0.40;;;17.20;98.90;;;;;;5039716;28;20477;-67
2022/06/15 05:21:41;;;;;;;4.15;0.38;;;17.10;97.80;;;;;;5022458;28;20034;-67
2022/06/15 05:24:09;;;;;;;1.05;0.22;;;17.00;98.30;;;;;;5016775;28;20025;-67
2022/06/15 05:26:37;;;;;;;2.47;0.30;;;16.90;99.10;;;;;;5021553;28;20030;-67
2022/06/15 05:29:06;;;;;;;2.97;0.20;;;16.90;98.10;;;;;;5011888;28;20033;-67
2022/06/15 05:31:34;;;;;;;1.45;0.47;;;16.70;98.10;;;;;;5019718;28;20393;-67
2022/06/15 05:34:01;;;;;;;1.75;0.52;;;16.70;97.60;;;;;;5022214;28;20026;-66
2022/06/15 05:36:35;;;;;;;0.70;0.20;;;16.70;99.60;;;;;;5022117;28;20038;-67
2022/06/15 05:39:04;;;;;;;0.95;0.30;;;16.70;99.90;;;;;;5014415;28;20358;-67
2022/06/15 05:41:32;;;;;;;0.77;0.30;;;16.60;99.90;;;;;;5027788;28;20044;-67
2022/06/15 05:46:32;;;;;;;2.22;0.40;;;16.50;99.60;;;;;;5040411;28;20022;-67
2022/06/15 05:49:02;;;;;;;0.73;0.40;;;16.40;99.90;;;;;;5020820;28;20041;-67
2022/06/15 05:51:30;;;;;;;0.55;0.30;;;16.40;99.90;;;;;;5027609;28;20445;-67
2022/06/15 05:53:57;;;;;;;0.60;0.30;;;16.30;99.90;;;;;;5040586;28;20045;-67
2022/06/15 05:56:24;;;;;;;4.32;2.65;;;16.20;99.60;;;;;;5038643;28;20053;-67
2022/06/15 05:58:52;;;;;;;1.15;0.60;;;16.20;99.90;;;;;;5023267;28;20861;-67
2022/06/15 06:01:33;;;;;;;2.17;0.43;;;16.10;99.60;;;;;;5022020;28;20025;-67
2022/06/15 06:04:01;;;;;;;1.15;0.50;;;16.10;99.70;;;;;;5030464;28;20483;-67
2022/06/15 06:06:30;;;;;;;1.70;0.47;;;16.10;99.20;;;;;;5028254;28;20057;-67
2022/06/15 06:08:58;;;;;;;3.30;0.50;;;16.10;99.60;;;;;;5036411;28;20075;-67
2022/06/15 06:11:27;;;;;;;6.28;0.68;;;16.20;99.20;;;;;;5020206;28;20037;-67
2022/06/15 06:13:54;;;;;;;1.85;0.93;;;16.10;99.90;;;;;;5032776;28;20528;-67
2022/06/15 06:16:22;;;;;;;2.63;0.90;;;16.10;99.90;;;;;;5027381;28;20034;-67
2022/06/15 06:18:51;;;;;;;3.83;1.20;;;16.10;99.90;;;;;;5032911;28;20086;-69
2022/06/15 06:21:19;;;;;;;3.67;1.90;;;16.00;99.90;;;;;;5036501;28;20033;-66
2022/06/15 06:23:47;;;;;;;7.47;3.25;;;15.90;99.90;;;;;;5027133;28;20057;-67
2022/06/15 06:26:21;;;;;;;6.13;2.72;;;15.90;99.90;;;;;;5015745;28;20069;-66
2022/06/15 06:28:48;;;;;;;;;;;15.80;99.90;;;;;;5021336;28;20535;-67
2022/06/15 06:31:16;;;;;;;3.80;1.33;;;15.80;99.90;;;;;;5024649;28;19916;-67
2022/06/15 06:33:43;;;;;;;2.95;1.63;;;15.70;99.90;;;;;;5022174;28;20033;-67
2022/06/15 06:36:37;;;;;;;9.68;1.30;;;15.70;99.90;;;;;;5023265;28;20437;-67
2022/06/15 06:39:10;;;;;;;7.95;1.35;;;15.60;99.90;;;;;;5030814;28;20080;-67
2022/06/15 06:41:38;;;;;;;6.50;0.80;;;15.50;99.90;;;;;;5024858;28;20477;-67
2022/06/15 06:44:06;;;;;;;5.10;1.13;;;15.50;99.90;;;;;;5023674;28;20110;-67
2022/06/15 06:46:35;;;;;;;3.30;1.17;;;15.40;99.90;;;;;;5025567;28;20075;-67
2022/06/15 06:49:06;;;;;;;8.55;1.20;;;15.30;99.90;;;;;;5022200;28;20032;-66
2022/06/15 06:51:36;;;;;;;5.60;0.80;;;15.20;99.90;;;;;;5023558;28;20034;-67
2022/06/15 06:54:08;;;;;;;7.95;1.60;;;15.20;99.90;;;;;;5027639;28;20429;-67
2022/06/15 06:56:36;;;;;;;4.95;0.90;;;15.10;99.90;;;;;;5028121;28;20026;-67
2022/06/15 06:59:06;;;;;;;4.05;1.15;;;15.10;99.90;;;;;;5031243;28;20037;-66
2022/06/15 07:01:35;;;;;;;7.32;1.25;;;15.00;99.90;;;;;;5024129;28;20025;-67
2022/06/15 07:04:02;;;;;;;5.78;1.25;;;15.00;99.90;;;;;;5027181;28;20108;-67
2022/06/15 07:06:29;;;;;;;6.63;1.10;;;14.90;99.90;;;;;;5038370;28;20384;-67
2022/06/15 07:09:01;;;;;;;7.85;1.20;;;14.90;99.90;;;;;;5025197;28;20021;-67
2022/06/15 07:11:29;;;;;;;5.72;1.42;;;14.80;99.90;;;;;;5027198;28;20028;-67
2022/06/15 07:13:59;;;;;;;3.17;0.95;;;14.80;99.90;;;;;;5027429;28;20057;-67
2022/06/15 07:16:27;;;;;;;6.72;1.20;;;14.80;99.90;;;;;;5026112;28;20017;-67
2022/06/15 07:18:55;;;;;;;5.82;1.67;;;14.80;99.90;;;;;;5014208;28;20056;-67
2022/06/15 07:21:27;;;;;;;7.57;1.60;;;14.80;99.90;;;;;;5026127;28;20490;-67
2022/06/15 07:23:57;;;;;;;2.78;1.20;;;14.70;99.90;;;;;;5026291;28;20021;-68
2022/06/15 07:26:41;;;;;;;6.05;1.90;;;14.60;99.90;;;;;;5031402;28;20121;-67
2022/06/15 07:29:12;;;;;;;8.80;1.77;;;14.60;99.90;;;;;;5015275;28;20034;-68
2022/06/15 07:31:42;;;;;;;3.20;1.13;;;14.50;99.90;;;;;;5036572;28;20022;-68
2022/06/15 07:34:11;;;;;;;6.03;1.33;;;14.50;99.90;;;;;;5030853;28;20455;-68
2022/06/15 07:36:46;;;;;;;4.78;1.38;;;14.40;99.90;;;;;;5020594;28;20029;-68
2022/06/15 07:39:19;;;;;;;4.50;1.13;;;14.30;99.90;;;;;;5038094;28;20021;-68
2022/06/15 07:41:47;;;;;;;7.43;1.67;;;14.30;99.90;;;;;;5025747;28;20018;-68
2022/06/15 07:44:15;;;;;;;4.03;1.00;;;14.20;99.90;;;;;;5033945;28;20114;-68
2022/06/15 07:46:43;;;;;;;3.75;1.00;;;14.20;99.90;;;;;;5022686;28;20026;-67
2022/06/15 07:52:02;;;;;;;4.60;1.15;;;14.30;99.90;;;;;;5038166;28;20074;-68
2022/06/15 07:54:30;;;;;;;3.65;1.00;;;14.40;99.90;;;;;;5013013;28;20150;-68
2022/06/15 07:56:58;;;;;;;5.00;1.33;;;14.40;99.90;;;;;;5016501;28;20077;-68
2022/06/15 07:59:26;;;;;;;4.82;1.02;;;14.30;99.90;;;;;;5020456;28;20049;-68
2022/06/15 08:01:53;;;;;;;3.42;0.93;;;14.30;99.90;;;;;;5020587;28;20037;-68
2022/06/15 08:04:21;;;;;;;6.20;1.65;;;14.40;99.90;;;;;;5040203;28;20024;-68
2022/06/15 08:06:49;;;;;;;4.68;1.10;;;14.30;99.90;;;;;;5036854;28;20383;-67
2022/06/15 08:09:19;;;;;;;3.05;0.98;;;14.30;99.90;;;;;;5033609;28;20041;-67
2022/06/15 08:14:35;;;;;;;4.97;1.10;;;14.60;99.90;;;;;;5025967;28;20045;-67
2022/06/15 08:17:05;;;;;;;4.95;1.20;;;14.70;99.90;;;;;;5026325;28;20022;-67
2022/06/15 08:19:36;;;;;;;2.72;0.82;;;14.70;99.90;;;;;;5023224;28;20119;-68
2022/06/15 08:22:04;;;;;;;1.92;0.70;;;14.80;99.90;;;;;;5030364;28;20028;-66
2022/06/15 08:24:32;;;;;;;4.05;1.33;;;14.80;99.90;;;;;;5015854;28;20030;-67
2022/06/15 08:27:00;;;;;;;3.90;1.02;;;14.80;99.90;;;;;;5023627;28;20390;-67
2022/06/15 08:29:27;;;;;;;2.80;0.98;;;14.80;99.90;;;;;;5024373;28;20030;-67
2022/06/15 08:31:57;;;;;;;2.08;0.82;;;14.90;99.90;;;;;;5041577;28;20028;-67
2022/06/15 08:34:26;;;;;;;2.70;0.80;;;14.80;99.90;;;;;;5038137;28;20034;-68
2022/06/15 08:36:54;;;;;;;3.03;0.93;;;14.80;99.90;;;;;;5034893;28;20017;-67
2022/06/15 08:39:22;;;;;;;2.30;1.10;;;14.90;99.90;;;;;;5023765;28;20029;-68
2022/06/15 08:42:05;;;;;;;2.30;0.80;;;14.80;99.90;;;;;;5020227;28;20030;-67
2022/06/15 08:44:50;;;;;;;4.00;0.80;;;14.80;99.90;;;;;;5015454;28;20030;-68
2022/06/15 08:47:53;;;;;;;2.92;1.60;;;14.70;99.90;;;;;;5030637;28;20030;-68
2022/06/15 08:50:34;;;;;;;2.35;0.60;;;14.60;99.90;;;;;;5027618;28;20029;-68
2022/06/15 08:53:24;;;;;;;2.17;0.50;;;14.60;99.90;;;;;;5029349;28;20049;-69
2022/06/15 08:56:21;;;;;;;3.60;1.25;;;14.60;99.90;;;;;;5019739;28;20531;-66
2022/06/15 08:58:59;;;;;;;1.83;0.50;;;14.70;99.70;;;;;;5021157;28;20017;-66
2022/06/15 09:01:49;;;;;;;2.67;0.63;;;14.70;99.70;;;;;;5030864;28;20017;-66
2022/06/15 09:04:31;;;;;;;2.38;0.63;;;14.60;99.70;;;;;;5016834;28;20062;-67
2022/06/15 09:07:26;;;;;;;1.52;0.63;;;14.70;99.50;;;;;;5012914;28;20041;-67
2022/06/15 09:10:20;;;;;;;;;;;14.70;99.30;;;;;;5028285;28;20490;-67
2022/06/15 09:13:13;;;;;;;5.13;0.70;;;14.70;99.30;;;;;;5019919;28;20021;-67
2022/06/15 09:16:03;;;;;;;2.83;0.80;;;14.60;99.20;;;;;;5040047;28;20083;-66
2022/06/15 09:18:39;;;;;;;1.15;0.70;;;14.70;99.20;;;;;;5034118;28;20020;-66
2022/06/15 09:21:17;;;;;;;3.65;0.93;;;14.70;99.10;;;;;;5030361;28;20039;-66
2022/06/15 09:23:53;;;;;;;2.50;0.63;;;14.70;99.10;;;;;;5034211;28;20571;-66
2022/06/15 09:26:28;;;;;;;1.88;0.70;;;14.60;99.30;;;;;;5019245;28;20033;-67
2022/06/15 09:29:11;;;;;;;3.72;1.25;;;14.50;99.60;;;;;;5032224;28;20032;-66
2022/06/15 09:32:00;;;;;;;4.30;1.20;;;14.40;99.80;;;;;;5031008;28;20414;-66
2022/06/15 09:34:36;;;;;;;3.22;1.20;;;14.20;99.90;;;;;;5030622;28;20028;-66
2022/06/15 09:37:10;;;;;;;3.92;2.15;;;14.10;99.90;;;;;;5031182;28;20378;-67
2022/06/15 09:39:37;;;;;;;5.22;2.17;;;14.10;99.90;;;;;;5035949;28;20025;-66
2022/06/15 09:42:40;;;;;;;4.63;2.63;;;14.00;99.90;;;;;;5032333;28;20398;-66
2022/06/15 09:45:18;;;;;;;3.05;1.90;;;13.90;99.90;;;;;;5044470;28;20033;-67
2022/06/15 09:47:57;;;;;;;5.13;2.35;;;13.80;99.90;;;;;;5030874;28;20046;-67
2022/06/15 09:50:30;;;;;;;3.95;1.63;;;13.80;99.90;;;;;;5030716;28;20036;-66
2022/06/15 09:53:04;;;;;;;2.05;1.20;;;13.80;99.90;;;;;;5037963;28;20025;-67
2022/06/15 09:55:42;;;;;;;4.65;1.35;;;14.00;99.90;;;;;;5029422;28;20033;-66
2022/06/15 09:58:14;;;;;;;4.88;2.28;;;14.00;99.90;;;;;;5036976;28;20087;-67
2022/06/15 10:00:43;;;;;;;3.95;1.52;;;13.90;99.90;;;;;;5022270;28;20068;-66
2022/06/15 10:03:47;;;;;;;4.38;2.00;;;13.80;99.90;;;;;;5022875;28;20487;-67
2022/06/15 10:06:20;;;;;;;3.35;1.23;;;13.70;99.90;;;;;;5021251;28;20048;-67
2022/06/15 10:08:50;;;;;;;3.33;1.63;;;13.70;99.90;;;;;;5026001;28;20547;-67
2022/06/15 10:11:43;;;;;;;6.38;2.47;;;13.70;99.90;;;;;;5040612;28;20112;-67
2022/06/15 10:14:30;;;;;;;2.42;1.70;;;13.50;99.90;;;;;;5022666;28;20053;-66
2022/06/15 10:17:19;;;;;;;3.83;1.95;;;13.40;99.90;;;;;;5034500;28;20030;-67
2022/06/15 10:19:50;;;;;;;4.00;1.45;;;13.20;99.90;;;;;;5032970;28;20027;-68
2022/06/15 10:22:42;;;;;;;2.72;1.38;;;13.20;99.90;;;;;;5051634;28;20485;-67
2022/06/15 10:25:17;;;;;;;3.30;1.17;;;13.20;99.90;;;;;;5033256;28;20029;-67
2022/06/15 10:27:45;;;;;;;2.83;1.33;;;13.10;99.90;;;;;;5041293;28;20449;-68
2022/06/15 10:30:13;;;;;;;4.25;1.60;;;13.20;99.90;;;;;;5033983;28;20064;-67
2022/06/15 10:33:24;;;;;;;3.47;1.35;;;13.20;99.90;;;;;;5039178;28;20032;-67
2022/06/15 10:35:57;;;;;;;6.28;1.38;;;13.10;99.90;;;;;;5019921;28;20033;-67
2022/06/15 10:38:26;;;;;;;3.80;1.60;;;13.10;99.90;;;;;;5034263;28;20389;-67
2022/06/15 10:43:50;;;;;;;3.83;1.77;;;13.10;99.90;;;;;;5022953;28;20029;-67
2022/06/15 10:46:20;;;;;;;3.35;1.80;;;13.10;99.90;;;;;;5033411;28;20028;-67
2022/06/15 10:48:53;;;;;;;2.92;1.17;;;13.20;99.90;;;;;;5053764;28;20037;-67
2022/06/15 10:51:33;;;;;;;1.67;1.05;;;13.30;99.90;;;;;;5027698;28;20021;-67
2022/06/15 10:54:30;;;;;;;2.45;1.35;;;13.30;99.90;;;;;;5051130;28;20059;-67
2022/06/15 11:03:12;;;;;;;4.47;1.25;;;13.60;99.90;;;;;;5030166;28;20047;-67
2022/06/15 11:05:39;;;;;;;1.85;0.80;;;13.70;99.90;;;;;;5032079;28;20029;-67
2022/06/15 11:08:35;;;;;;;1.33;1.00;;;13.70;99.90;;;;;;5027557;28;20037;-67
2022/06/15 11:11:24;;;;;;;1.85;0.95;;;13.70;99.90;;;;;;5014941;28;20042;-68
2022/06/15 11:14:02;;;;;;;3.20;1.35;;;13.60;99.90;;;;;;5033466;28;20017;-68
2022/06/15 11:19:25;;;;;;;2.08;0.80;;;13.40;99.90;;;;;;5021934;28;20053;-67
2022/06/15 11:21:55;;;;;;;1.52;1.02;;;13.30;99.90;;;;;;5052638;28;20024;-67
2022/06/15 11:24:41;;;;;;;1.95;1.05;;;13.20;99.90;;;;;;5041187;28;20043;-68
2022/06/15 11:27:16;;;;;;;1.75;1.00;;;13.10;99.90;;;;;;5039685;28;20025;-68
2022/06/15 11:30:21;;;;;;;2.47;1.05;;;13.00;99.90;;;;;;5038194;28;20055;-67
2022/06/15 11:33:03;;;;;;;2.45;0.95;;;12.90;99.90;;;;;;5034638;28;20052;-68
2022/06/15 11:36:01;;;;;;;4.03;1.23;;;12.90;99.90;;;;;;5026610;28;20108;-67
2022/06/15 11:38:39;;;;;;;2.55;0.98;;;12.80;99.90;;;;;;5021740;28;20063;-67
2022/06/15 11:41:21;;;;;;;3.35;1.27;;;12.80;99.90;;;;;;5019208;28;20609;-67
2022/06/15 11:43:50;;;;;;;3.97;1.52;;;12.70;99.90;;;;;;5021567;28;20026;-68
2022/06/15 11:46:54;;;;;;;4.88;1.33;;;12.60;99.90;;;;;;5029952;28;20029;-68
2022/06/15 11:49:34;;;;;;;2.42;1.30;;;12.60;99.90;;;;;;5023623;28;20037;-67
2022/06/15 11:52:19;;;;;;;2.22;1.38;;;12.60;99.90;;;;;;5023759;28;20034;-67
2022/06/15 11:55:03;;;;;;;4.50;1.15;;;12.60;99.90;;;;;;5030706;28;20084;-67
2022/06/15 11:57:37;;;;;;;2.92;1.10;;;12.60;99.90;;;;;;5031610;28;20033;-67
2022/06/15 12:00:24;;;;;;;3.88;0.95;;;12.60;99.90;;;;;;5027930;28;20029;-67
2022/06/15 12:03:20;;;;;;;2.05;0.90;;;12.80;99.90;;;;;;5022635;28;20025;-67
2022/06/15 12:06:09;;;;;;;2.90;0.90;;;13.00;99.90;;;;;;5029744;28;20020;-68
2022/06/15 12:08:44;;;;;;;1.35;0.70;;;13.20;99.90;;;;;;5031337;28;20088;-67
2022/06/15 12:14:35;;;;;;;1.30;0.68;;;13.30;99.90;;;;;;5029025;28;20100;-67
2022/06/15 12:17:19;;;;;;;1.42;0.63;;;13.30;99.90;;;;;;5019204;28;20033;-67
2022/06/15 12:19:58;;;;;;;1.75;1.17;;;13.30;99.90;;;;;;5030595;28;20036;-67
2022/06/15 12:22:36;;;;;;;2.38;1.00;;;13.20;99.90;;;;;;5029559;28;20120;-67
2022/06/15 12:25:25;;;;;;;1.63;0.90;;;13.10;99.90;;;;;;5020078;28;20026;-67
2022/06/15 12:28:01;;;;;;;1.90;1.17;;;13.00;99.90;;;;;;5026113;28;20037;-67
2022/06/15 12:30:42;;;;;;;2.72;1.10;;;12.90;99.90;;;;;;5020656;28;20417;-67
2022/06/15 12:33:15;;;;;;;3.15;1.25;;;12.80;99.90;;;;;;5021912;28;20112;-67
2022/06/15 12:35:54;;;;;;;1.65;0.50;;;12.80;99.90;;;;;;5031470;28;20108;-67
2022/06/15 12:38:40;;;;;;;2.28;0.60;;;12.80;99.90;;;;;;5031494;28;20032;-67
2022/06/15 12:43:59;;;;;;;1.25;0.57;;;13.00;99.90;;;;;;5020286;28;20095;-66
2022/06/15 12:46:27;;;;;;;0.65;0.30;;;13.10;99.90;;;;;;5015761;28;20030;-67
2022/06/15 12:49:18;;;;;;;1.73;0.43;;;13.30;99.90;;;;;;5026109;28;20029;-66
2022/06/15 12:51:51;;;;;;;1.65;0.47;;;13.40;99.90;;;;;;5023699;28;20395;-67
2022/06/15 12:54:24;;;;;;;1.20;0.38;;;13.40;99.90;;;;;;5016866;28;20047;-67
2022/06/15 12:57:10;;;;;;;2.80;0.60;;;13.30;99.90;;;;;;5026014;28;20022;-67
2022/06/15 12:59:43;;;;;;;1.00;0.50;;;13.30;99.90;;;;;;5026751;28;20022;-67
2022/06/15 13:02:31;;;;;;;1.00;0.60;;;13.20;99.90;;;;;;5031549;28;20108;-67
2022/06/15 13:05:25;;;;;;;0.77;0.40;;;13.20;99.90;;;;;;5028999;28;20389;-67
2022/06/15 13:08:34;;;;;;;4.90;1.17;;;13.20;99.90;;;;;;5027031;28;20089;-66
2022/06/15 13:11:14;;;;;;;3.58;0.80;;;13.20;99.90;;;;;;5021993;28;20573;-67
2022/06/15 13:13:49;;;;;;;2.15;0.85;;;13.10;99.90;;;;;;5023139;28;20033;-67
2022/06/15 13:16:42;;;;;;;0.85;0.50;;;13.00;99.90;;;;;;5020812;28;20037;-67
2022/06/15 13:19:31;;;;;;;1.52;0.60;;;13.00;99.90;;;;;;5032224;28;20097;-67
2022/06/15 13:22:09;;;;;;;2.40;0.65;;;12.90;99.90;;;;;;5028930;28;20045;-66
2022/06/15 13:24:49;;;;;;;1.65;0.43;;;12.90;99.90;;;;;;5024106;28;20534;-67
2022/06/15 13:27:23;;;;;;;1.95;0.60;;;12.80;99.90;;;;;;5040800;28;20022;-67
2022/06/15 13:29:52;;;;;;;;;;;12.80;99.90;;;;;;5026219;28;20498;-68
2022/06/15 13:32:58;;;;;;;3.60;1.20;;;12.70;99.90;;;;;;5037525;28;19909;-66
2022/06/15 13:35:28;;;;;;;3.15;1.10;;;12.70;99.90;;;;;;5027596;28;20049;-66
2022/06/15 13:38:07;;;;;;;1.70;0.90;;;12.60;99.90;;;;;;5028059;28;20034;-66
2022/06/15 13:40:58;;;;;;;3.40;1.05;;;12.50;99.90;;;;;;5024044;28;20087;-66
2022/06/15 13:43:48;;;;;;;2.67;1.25;;;12.60;99.90;;;;;;5021716;28;20029;-66
2022/06/15 13:46:28;;;;;;;2.33;1.05;;;12.70;99.90;;;;;;5028285;28;20052;-66
2022/06/15 13:49:01;;;;;;;2.78;1.00;;;12.70;99.90;;;;;;5030358;28;20033;-67
2022/06/15 13:51:41;;;;;;;1.25;0.60;;;12.80;99.90;;;;;;5018652;28;20041;-66
2022/06/15 13:54:31;;;;;;;2.08;0.75;;;12.90;99.90;;;;;;5022893;28;20053;-66
2022/06/15 13:57:12;;;;;;;0.95;0.40;;;13.00;99.90;;;;;;5020441;28;20056;-67
2022/06/15 13:59:56;;;;;;;1.13;0.38;;;13.00;99.90;;;;;;5037328;28;20067;-67